sensor_id;sensor_type;location;lat;lon;timestamp;temperature;humidity
52103;DHT22;38101;53.126;6.878;2023-04-25T00:02:22;7.20;99.90
52103;DHT22;38101;53.126;6.878;2023-04-25T00:04:48;7.10;99.90
52103;DHT22;38101;53.126;6.878;2023-04-25T00:07:17;7.20;99.90
52103;DHT22;38101;53.126;6.878;2023-04-25T00:09:44;7.20;99.90
52103;DHT22;38101;53.126;6.878;2023-04-25T00:12:10;7.30;99.90
52103;DHT22;38101;53.126;6.878;2023-04-25T00:14:36;7.30;99.90
52103;DHT22;38101;53.126;6.878;2023-04-25T00:17:02;7.30;99.90
52103;DHT22;38101;53.126;6.878;2023-04-25T00:19:28;7.20;99.90
52103;DHT22;38101;53.126;6.878;2023-04-25T00:21:55;7.20;99.90
52103;DHT22;38101;53.126;6.878;2023-04-25T00:24:21;7.20;99.90
52103;DHT22;38101;53.126;6.878;2023-04-25T00:26:46;7.20;99.90
52103;DHT22;38101;53.126;6.878;2023-04-25T00:29:13;7.20;99.90
52103;DHT22;38101;53.126;6.878;2023-04-25T00:31:38;7.20;99.90
52103;DHT22;38101;53.126;6.878;2023-04-25T00:34:05;7.20;99.90
52103;DHT22;38101;53.126;6.878;2023-04-25T00:44:30;7.10;99.90
52103;DHT22;38101;53.126;6.878;2023-04-25T00:46:57;7.10;99.90
52103;DHT22;38101;53.126;6.878;2023-04-25T00:49:23;7.10;99.90
52103;DHT22;38101;53.126;6.878;2023-04-25T00:51:49;7.10;99.90
52103;DHT22;38101;53.126;6.878;2023-04-25T00:54:16;7.10;99.90
52103;DHT22;38101;53.126;6.878;2023-04-25T00:56:42;7.10;99.90
52103;DHT22;38101;53.126;6.878;2023-04-25T00:59:09;7.10;99.90
52103;DHT22;38101;53.126;6.878;2023-04-25T01:01:35;7.10;99.90
52103;DHT22;38101;53.126;6.878;2023-04-25T01:04:01;7.20;99.90
52103;DHT22;38101;53.126;6.878;2023-04-25T01:06:27;7.00;99.90
52103;DHT22;38101;53.126;6.878;2023-04-25T01:08:54;6.90;99.90
52103;DHT22;38101;53.126;6.878;2023-04-25T01:11:20;6.80;99.90
52103;DHT22;38101;53.126;6.878;2023-04-25T01:13:45;6.80;99.90
52103;DHT22;38101;53.126;6.878;2023-04-25T01:16:11;6.70;99.90
52103;DHT22;38101;53.126;6.878;2023-04-25T01:18:40;6.70;99.90
52103;DHT22;38101;53.126;6.878;2023-04-25T01:21:11;6.70;99.90
52103;DHT22;38101;53.126;6.878;2023-04-25T01:23:39;6.60;99.90
52103;DHT22;38101;53.126;6.878;2023-04-25T01:26:06;6.60;99.90
52103;DHT22;38101;53.126;6.878;2023-04-25T01:28:34;6.60;99.90
52103;DHT22;38101;53.126;6.878;2023-04-25T01:31:00;6.50;99.90
52103;DHT22;38101;53.126;6.878;2023-04-25T01:33:26;6.60;99.90
52103;DHT22;38101;53.126;6.878;2023-04-25T01:35:52;6.50;99.90
52103;DHT22;38101;53.126;6.878;2023-04-25T01:38:18;6.50;99.90
52103;DHT22;38101;53.126;6.878;2023-04-25T01:40:45;6.50;99.90
52103;DHT22;38101;53.126;6.878;2023-04-25T01:43:12;6.50;99.90
52103;DHT22;38101;53.126;6.878;2023-04-25T01:45:41;6.50;99.90
52103;DHT22;38101;53.126;6.878;2023-04-25T01:48:11;6.50;99.90
52103;DHT22;38101;53.126;6.878;2023-04-25T01:50:38;6.50;99.90
52103;DHT22;38101;53.126;6.878;2023-04-25T01:53:05;6.50;99.90
52103;DHT22;38101;53.126;6.878;2023-04-25T01:55:31;6.50;99.90
52103;DHT22;38101;53.126;6.878;2023-04-25T01:57:57;6.60;99.90
52103;DHT22;38101;53.126;6.878;2023-04-25T02:00:22;6.60;99.90
52103;DHT22;38101;53.126;6.878;2023-04-25T02:02:48;6.50;99.90
52103;DHT22;38101;53.126;6.878;2023-04-25T02:05:16;6.50;99.90
52103;DHT22;38101;53.126;6.878;2023-04-25T02:07:42;6.60;99.90
52103;DHT22;38101;53.126;6.878;2023-04-25T02:10:08;6.60;99.90
52103;DHT22;38101;53.126;6.878;2023-04-25T02:12:35;6.50;99.90
52103;DHT22;38101;53.126;6.878;2023-04-25T02:15:01;6.50;99.90
52103;DHT22;38101;53.126;6.878;2023-04-25T02:17:27;6.50;99.90
52103;DHT22;38101;53.126;6.878;2023-04-25T02:19:53;6.60;99.90
52103;DHT22;38101;53.126;6.878;2023-04-25T02:22:19;6.60;99.90
52103;DHT22;38101;53.126;6.878;2023-04-25T02:24:45;6.50;99.90
52103;DHT22;38101;53.126;6.878;2023-04-25T02:27:11;6.50;99.90
52103;DHT22;38101;53.126;6.878;2023-04-25T02:29:37;6.50;99.90
52103;DHT22;38101;53.126;6.878;2023-04-25T02:32:03;6.50;99.90
52103;DHT22;38101;53.126;6.878;2023-04-25T02:34:29;6.70;99.90
52103;DHT22;38101;53.126;6.878;2023-04-25T02:36:55;6.50;99.90
52103;DHT22;38101;53.126;6.878;2023-04-25T02:39:21;6.50;99.90
52103;DHT22;38101;53.126;6.878;2023-04-25T02:41:47;6.50;99.90
52103;DHT22;38101;53.126;6.878;2023-04-25T02:44:13;6.50;99.90
52103;DHT22;38101;53.126;6.878;2023-04-25T02:46:39;6.50;99.90
52103;DHT22;38101;53.126;6.878;2023-04-25T02:49:05;6.40;99.90
52103;DHT22;38101;53.126;6.878;2023-04-25T02:51:30;6.40;99.90
52103;DHT22;38101;53.126;6.878;2023-04-25T02:53:56;6.30;99.90
52103;DHT22;38101;53.126;6.878;2023-04-25T02:56:22;6.30;99.90
52103;DHT22;38101;53.126;6.878;2023-04-25T02:58:48;6.30;99.90
52103;DHT22;38101;53.126;6.878;2023-04-25T03:01:14;6.30;99.90
52103;DHT22;38101;53.126;6.878;2023-04-25T03:03:39;6.30;99.90
52103;DHT22;38101;53.126;6.878;2023-04-25T03:06:05;6.30;99.90
52103;DHT22;38101;53.126;6.878;2023-04-25T03:08:31;6.30;99.90
52103;DHT22;38101;53.126;6.878;2023-04-25T03:10:58;6.30;99.90
52103;DHT22;38101;53.126;6.878;2023-04-25T03:13:24;6.30;99.90
52103;DHT22;38101;53.126;6.878;2023-04-25T03:15:50;6.30;99.90
52103;DHT22;38101;53.126;6.878;2023-04-25T03:18:16;6.40;99.90
52103;DHT22;38101;53.126;6.878;2023-04-25T03:20:41;6.30;99.90
52103;DHT22;38101;53.126;6.878;2023-04-25T03:23:08;6.30;99.90
52103;DHT22;38101;53.126;6.878;2023-04-25T03:25:34;6.30;99.90
52103;DHT22;38101;53.126;6.878;2023-04-25T03:28:00;6.20;99.90
52103;DHT22;38101;53.126;6.878;2023-04-25T03:30:26;6.20;99.90
52103;DHT22;38101;53.126;6.878;2023-04-25T03:32:51;6.20;99.90
52103;DHT22;38101;53.126;6.878;2023-04-25T03:35:17;6.10;99.90
52103;DHT22;38101;53.126;6.878;2023-04-25T03:37:43;6.10;99.90
52103;DHT22;38101;53.126;6.878;2023-04-25T03:40:12;6.10;99.90
52103;DHT22;38101;53.126;6.878;2023-04-25T03:42:37;6.00;99.90
52103;DHT22;38101;53.126;6.878;2023-04-25T03:45:04;6.00;99.90
52103;DHT22;38101;53.126;6.878;2023-04-25T03:47:30;5.90;99.90
52103;DHT22;38101;53.126;6.878;2023-04-25T03:49:56;5.90;99.90
52103;DHT22;38101;53.126;6.878;2023-04-25T03:52:21;5.90;99.90
52103;DHT22;38101;53.126;6.878;2023-04-25T03:54:47;5.80;99.90
52103;DHT22;38101;53.126;6.878;2023-04-25T03:57:13;5.80;99.90
52103;DHT22;38101;53.126;6.878;2023-04-25T03:59:39;5.70;99.90
52103;DHT22;38101;53.126;6.878;2023-04-25T04:02:05;5.70;99.90
52103;DHT22;38101;53.126;6.878;2023-04-25T04:04:31;5.70;99.90
52103;DHT22;38101;53.126;6.878;2023-04-25T04:06:56;5.60;99.90
52103;DHT22;38101;53.126;6.878;2023-04-25T04:09:22;5.50;99.90
52103;DHT22;38101;53.126;6.878;2023-04-25T04:11:48;5.50;99.90
52103;DHT22;38101;53.126;6.878;2023-04-25T04:14:13;5.40;99.90
52103;DHT22;38101;53.126;6.878;2023-04-25T04:16:39;5.40;99.90
52103;DHT22;38101;53.126;6.878;2023-04-25T04:19:05;5.40;99.90
52103;DHT22;38101;53.126;6.878;2023-04-25T04:21:31;5.40;99.90
52103;DHT22;38101;53.126;6.878;2023-04-25T04:23:57;5.50;99.90
52103;DHT22;38101;53.126;6.878;2023-04-25T04:26:25;5.50;99.90
52103;DHT22;38101;53.126;6.878;2023-04-25T04:28:51;5.60;99.90
52103;DHT22;38101;53.126;6.878;2023-04-25T04:31:22;5.50;99.90
52103;DHT22;38101;53.126;6.878;2023-04-25T04:33:49;5.50;99.90
52103;DHT22;38101;53.126;6.878;2023-04-25T04:36:16;5.50;99.90
52103;DHT22;38101;53.126;6.878;2023-04-25T04:38:45;5.40;99.90
52103;DHT22;38101;53.126;6.878;2023-04-25T04:41:11;5.40;99.90
52103;DHT22;38101;53.126;6.878;2023-04-25T04:43:36;5.40;99.90
52103;DHT22;38101;53.126;6.878;2023-04-25T04:46:03;5.30;99.90
52103;DHT22;38101;53.126;6.878;2023-04-25T04:48:32;5.30;99.90
52103;DHT22;38101;53.126;6.878;2023-04-25T04:51:00;5.30;99.90
52103;DHT22;38101;53.126;6.878;2023-04-25T04:53:27;5.30;99.90
52103;DHT22;38101;53.126;6.878;2023-04-25T04:55:54;5.30;99.90
52103;DHT22;38101;53.126;6.878;2023-04-25T04:58:19;5.30;99.90
52103;DHT22;38101;53.126;6.878;2023-04-25T05:00:45;5.20;99.90
52103;DHT22;38101;53.126;6.878;2023-04-25T05:03:11;5.20;99.90
52103;DHT22;38101;53.126;6.878;2023-04-25T05:05:37;5.20;99.90
52103;DHT22;38101;53.126;6.878;2023-04-25T05:08:06;5.20;99.90
52103;DHT22;38101;53.126;6.878;2023-04-25T05:10:32;5.30;99.90
52103;DHT22;38101;53.126;6.878;2023-04-25T05:12:57;5.30;99.90
52103;DHT22;38101;53.126;6.878;2023-04-25T05:15:23;5.30;99.90
52103;DHT22;38101;53.126;6.878;2023-04-25T05:17:49;5.30;99.90
52103;DHT22;38101;53.126;6.878;2023-04-25T05:20:15;5.30;99.90
52103;DHT22;38101;53.126;6.878;2023-04-25T05:22:41;5.30;99.90
52103;DHT22;38101;53.126;6.878;2023-04-25T05:25:08;5.30;99.90
52103;DHT22;38101;53.126;6.878;2023-04-25T05:27:34;5.40;99.90
52103;DHT22;38101;53.126;6.878;2023-04-25T05:30:00;5.40;99.90
52103;DHT22;38101;53.126;6.878;2023-04-25T05:32:26;5.40;99.90
52103;DHT22;38101;53.126;6.878;2023-04-25T05:34:52;5.60;99.90
52103;DHT22;38101;53.126;6.878;2023-04-25T05:37:18;5.60;99.90
52103;DHT22;38101;53.126;6.878;2023-04-25T05:39:44;5.60;99.90
52103;DHT22;38101;53.126;6.878;2023-04-25T05:42:09;5.70;99.90
52103;DHT22;38101;53.126;6.878;2023-04-25T05:44:36;5.50;99.90
52103;DHT22;38101;53.126;6.878;2023-04-25T05:47:01;5.60;99.90
52103;DHT22;38101;53.126;6.878;2023-04-25T05:49:27;5.60;99.90
52103;DHT22;38101;53.126;6.878;2023-04-25T05:51:53;5.60;99.90
52103;DHT22;38101;53.126;6.878;2023-04-25T05:54:18;5.60;99.90
52103;DHT22;38101;53.126;6.878;2023-04-25T05:56:44;5.60;99.90
52103;DHT22;38101;53.126;6.878;2023-04-25T05:59:10;5.50;99.90
52103;DHT22;38101;53.126;6.878;2023-04-25T06:01:36;5.60;99.90
52103;DHT22;38101;53.126;6.878;2023-04-25T06:04:01;5.60;99.90
52103;DHT22;38101;53.126;6.878;2023-04-25T06:06:27;5.60;99.90
52103;DHT22;38101;53.126;6.878;2023-04-25T06:08:53;5.60;99.90
52103;DHT22;38101;53.126;6.878;2023-04-25T06:11:20;5.70;99.90
52103;DHT22;38101;53.126;6.878;2023-04-25T06:13:46;5.70;99.90
52103;DHT22;38101;53.126;6.878;2023-04-25T06:16:12;5.70;99.90
52103;DHT22;38101;53.126;6.878;2023-04-25T06:18:38;5.80;99.90
52103;DHT22;38101;53.126;6.878;2023-04-25T06:21:04;5.90;99.90
52103;DHT22;38101;53.126;6.878;2023-04-25T06:23:29;5.80;99.90
52103;DHT22;38101;53.126;6.878;2023-04-25T06:25:55;5.80;99.90
52103;DHT22;38101;53.126;6.878;2023-04-25T06:28:21;5.70;99.90
52103;DHT22;38101;53.126;6.878;2023-04-25T06:30:47;5.70;99.90
52103;DHT22;38101;53.126;6.878;2023-04-25T06:33:13;5.60;99.90
52103;DHT22;38101;53.126;6.878;2023-04-25T06:35:38;5.60;99.90
52103;DHT22;38101;53.126;6.878;2023-04-25T06:38:04;5.60;99.90
52103;DHT22;38101;53.126;6.878;2023-04-25T06:40:30;5.60;99.90
52103;DHT22;38101;53.126;6.878;2023-04-25T06:42:56;5.70;99.90
52103;DHT22;38101;53.126;6.878;2023-04-25T06:45:22;5.70;99.90
52103;DHT22;38101;53.126;6.878;2023-04-25T06:47:47;5.80;99.90
52103;DHT22;38101;53.126;6.878;2023-04-25T06:50:13;5.80;99.90
52103;DHT22;38101;53.126;6.878;2023-04-25T06:52:39;5.80;99.90
52103;DHT22;38101;53.126;6.878;2023-04-25T06:55:05;5.90;99.90
52103;DHT22;38101;53.126;6.878;2023-04-25T06:57:31;5.90;99.90
52103;DHT22;38101;53.126;6.878;2023-04-25T06:59:57;6.00;99.90
52103;DHT22;38101;53.126;6.878;2023-04-25T07:02:22;6.10;99.90
52103;DHT22;38101;53.126;6.878;2023-04-25T07:04:48;6.10;99.90
52103;DHT22;38101;53.126;6.878;2023-04-25T07:07:14;6.20;99.90
52103;DHT22;38101;53.126;6.878;2023-04-25T07:09:40;6.30;99.90
52103;DHT22;38101;53.126;6.878;2023-04-25T07:12:06;6.40;99.90
52103;DHT22;38101;53.126;6.878;2023-04-25T07:14:31;6.50;99.90
52103;DHT22;38101;53.126;6.878;2023-04-25T07:16:57;6.50;99.90
52103;DHT22;38101;53.126;6.878;2023-04-25T07:19:23;6.60;99.90
52103;DHT22;38101;53.126;6.878;2023-04-25T07:21:55;6.70;99.90
52103;DHT22;38101;53.126;6.878;2023-04-25T07:24:20;6.70;99.90
52103;DHT22;38101;53.126;6.878;2023-04-25T07:26:46;6.70;99.90
52103;DHT22;38101;53.126;6.878;2023-04-25T07:29:12;6.70;99.90
52103;DHT22;38101;53.126;6.878;2023-04-25T07:31:38;6.70;99.90
52103;DHT22;38101;53.126;6.878;2023-04-25T07:34:04;6.70;99.90
52103;DHT22;38101;53.126;6.878;2023-04-25T07:36:31;6.70;99.90
52103;DHT22;38101;53.126;6.878;2023-04-25T07:38:57;6.70;99.90
52103;DHT22;38101;53.126;6.878;2023-04-25T07:41:22;6.70;99.90
52103;DHT22;38101;53.126;6.878;2023-04-25T07:43:48;6.70;99.90
52103;DHT22;38101;53.126;6.878;2023-04-25T07:46:14;6.90;99.90
52103;DHT22;38101;53.126;6.878;2023-04-25T07:48:40;6.90;99.90
52103;DHT22;38101;53.126;6.878;2023-04-25T07:51:06;6.90;99.90
52103;DHT22;38101;53.126;6.878;2023-04-25T07:53:32;6.90;99.90
52103;DHT22;38101;53.126;6.878;2023-04-25T07:56:00;7.00;99.90
52103;DHT22;38101;53.126;6.878;2023-04-25T07:58:26;7.10;99.90
52103;DHT22;38101;53.126;6.878;2023-04-25T08:00:51;7.20;99.90
52103;DHT22;38101;53.126;6.878;2023-04-25T08:03:17;7.30;99.90
52103;DHT22;38101;53.126;6.878;2023-04-25T08:05:43;7.40;99.90
52103;DHT22;38101;53.126;6.878;2023-04-25T08:08:09;7.50;99.90
52103;DHT22;38101;53.126;6.878;2023-04-25T08:10:35;7.50;99.90
52103;DHT22;38101;53.126;6.878;2023-04-25T08:13:00;7.50;99.90
52103;DHT22;38101;53.126;6.878;2023-04-25T08:15:26;7.50;99.90
52103;DHT22;38101;53.126;6.878;2023-04-25T08:17:52;7.40;99.90
52103;DHT22;38101;53.126;6.878;2023-04-25T08:20:18;7.50;99.90
52103;DHT22;38101;53.126;6.878;2023-04-25T08:22:43;7.50;99.90
52103;DHT22;38101;53.126;6.878;2023-04-25T08:25:09;7.50;99.90
52103;DHT22;38101;53.126;6.878;2023-04-25T08:27:35;7.40;99.90
52103;DHT22;38101;53.126;6.878;2023-04-25T08:30:03;7.50;99.90
52103;DHT22;38101;53.126;6.878;2023-04-25T08:32:28;7.50;99.90
52103;DHT22;38101;53.126;6.878;2023-04-25T08:34:54;7.40;99.90
52103;DHT22;38101;53.126;6.878;2023-04-25T08:37:21;7.60;99.90
52103;DHT22;38101;53.126;6.878;2023-04-25T08:39:47;7.80;99.90
52103;DHT22;38101;53.126;6.878;2023-04-25T08:42:17;7.80;99.90
52103;DHT22;38101;53.126;6.878;2023-04-25T08:44:45;7.80;99.90
52103;DHT22;38101;53.126;6.878;2023-04-25T08:47:10;7.50;99.90
52103;DHT22;38101;53.126;6.878;2023-04-25T08:49:37;7.30;99.90
52103;DHT22;38101;53.126;6.878;2023-04-25T08:52:04;7.10;99.90
52103;DHT22;38101;53.126;6.878;2023-04-25T08:54:32;7.00;99.90
52103;DHT22;38101;53.126;6.878;2023-04-25T08:57:01;6.70;99.90
52103;DHT22;38101;53.126;6.878;2023-04-25T08:59:30;6.70;99.90
52103;DHT22;38101;53.126;6.878;2023-04-25T09:01:56;6.60;99.90
52103;DHT22;38101;53.126;6.878;2023-04-25T09:04:22;6.70;99.90
52103;DHT22;38101;53.126;6.878;2023-04-25T09:06:48;6.70;99.90
52103;DHT22;38101;53.126;6.878;2023-04-25T09:09:14;6.80;99.90
52103;DHT22;38101;53.126;6.878;2023-04-25T09:11:40;6.90;99.90
52103;DHT22;38101;53.126;6.878;2023-04-25T09:16:57;7.00;99.90
52103;DHT22;38101;53.126;6.878;2023-04-25T09:19:29;7.10;99.90
52103;DHT22;38101;53.126;6.878;2023-04-25T09:21:57;7.20;99.90
52103;DHT22;38101;53.126;6.878;2023-04-25T09:24:34;7.30;99.90
52103;DHT22;38101;53.126;6.878;2023-04-25T09:27:02;7.40;99.90
52103;DHT22;38101;53.126;6.878;2023-04-25T09:29:29;7.50;99.90
52103;DHT22;38101;53.126;6.878;2023-04-25T09:32:16;7.60;99.90
52103;DHT22;38101;53.126;6.878;2023-04-25T09:34:44;7.80;99.90
52103;DHT22;38101;53.126;6.878;2023-04-25T09:37:11;7.80;99.90
52103;DHT22;38101;53.126;6.878;2023-04-25T09:39:38;8.10;99.90
52103;DHT22;38101;53.126;6.878;2023-04-25T09:42:05;8.10;99.90
52103;DHT22;38101;53.126;6.878;2023-04-25T09:44:31;8.20;99.90
52103;DHT22;38101;53.126;6.878;2023-04-25T09:46:57;8.20;99.90
52103;DHT22;38101;53.126;6.878;2023-04-25T09:49:25;8.20;99.90
52103;DHT22;38101;53.126;6.878;2023-04-25T09:51:57;8.20;99.90
52103;DHT22;38101;53.126;6.878;2023-04-25T09:54:24;8.20;99.90
52103;DHT22;38101;53.126;6.878;2023-04-25T09:56:52;8.30;99.90
52103;DHT22;38101;53.126;6.878;2023-04-25T09:59:21;8.40;99.90
52103;DHT22;38101;53.126;6.878;2023-04-25T10:01:50;8.30;99.90
52103;DHT22;38101;53.126;6.878;2023-04-25T10:04:24;8.10;99.90
52103;DHT22;38101;53.126;6.878;2023-04-25T10:06:53;7.90;99.90
52103;DHT22;38101;53.126;6.878;2023-04-25T10:09:25;7.80;99.90
52103;DHT22;38101;53.126;6.878;2023-04-25T10:11:51;7.70;99.90
52103;DHT22;38101;53.126;6.878;2023-04-25T10:14:18;7.70;99.90
52103;DHT22;38101;53.126;6.878;2023-04-25T10:16:45;7.80;99.90
52103;DHT22;38101;53.126;6.878;2023-04-25T10:19:11;7.90;99.90
52103;DHT22;38101;53.126;6.878;2023-04-25T10:21:46;8.10;99.90
52103;DHT22;38101;53.126;6.878;2023-04-25T10:24:14;8.10;99.90
52103;DHT22;38101;53.126;6.878;2023-04-25T10:26:40;8.40;99.90
52103;DHT22;38101;53.126;6.878;2023-04-25T10:29:06;8.60;99.90
52103;DHT22;38101;53.126;6.878;2023-04-25T10:31:32;8.80;99.90
52103;DHT22;38101;53.126;6.878;2023-04-25T10:34:00;8.80;99.90
52103;DHT22;38101;53.126;6.878;2023-04-25T10:36:31;9.00;99.90
52103;DHT22;38101;53.126;6.878;2023-04-25T10:39:05;9.00;99.90
52103;DHT22;38101;53.126;6.878;2023-04-25T10:41:46;9.00;99.90
52103;DHT22;38101;53.126;6.878;2023-04-25T10:44:14;8.70;99.90
52103;DHT22;38101;53.126;6.878;2023-04-25T10:46:39;8.40;99.90
52103;DHT22;38101;53.126;6.878;2023-04-25T10:49:08;8.10;99.90
52103;DHT22;38101;53.126;6.878;2023-04-25T10:51:36;7.80;99.90
52103;DHT22;38101;53.126;6.878;2023-04-25T10:54:06;7.70;99.90
52103;DHT22;38101;53.126;6.878;2023-04-25T10:56:36;7.60;99.90
52103;DHT22;38101;53.126;6.878;2023-04-25T10:59:15;7.60;99.90
52103;DHT22;38101;53.126;6.878;2023-04-25T11:01:47;7.70;99.90
52103;DHT22;38101;53.126;6.878;2023-04-25T11:04:29;7.80;99.90
52103;DHT22;38101;53.126;6.878;2023-04-25T11:07:44;7.90;99.90
52103;DHT22;38101;53.126;6.878;2023-04-25T11:10:12;8.00;99.90
52103;DHT22;38101;53.126;6.878;2023-04-25T11:12:39;8.20;99.90
52103;DHT22;38101;53.126;6.878;2023-04-25T11:15:06;8.30;99.90
52103;DHT22;38101;53.126;6.878;2023-04-25T11:17:33;8.50;99.90
52103;DHT22;38101;53.126;6.878;2023-04-25T11:19:59;8.60;99.90
52103;DHT22;38101;53.126;6.878;2023-04-25T11:22:26;8.70;99.90
52103;DHT22;38101;53.126;6.878;2023-04-25T11:24:52;8.50;99.90
52103;DHT22;38101;53.126;6.878;2023-04-25T11:27:18;8.50;99.90
52103;DHT22;38101;53.126;6.878;2023-04-25T11:29:44;8.40;99.90
52103;DHT22;38101;53.126;6.878;2023-04-25T11:32:09;8.40;99.90
52103;DHT22;38101;53.126;6.878;2023-04-25T11:34:35;8.40;99.90
52103;DHT22;38101;53.126;6.878;2023-04-25T11:37:02;8.30;99.90
52103;DHT22;38101;53.126;6.878;2023-04-25T11:39:28;8.40;99.90
52103;DHT22;38101;53.126;6.878;2023-04-25T11:41:54;8.60;99.90
52103;DHT22;38101;53.126;6.878;2023-04-25T11:44:21;8.80;99.90
52103;DHT22;38101;53.126;6.878;2023-04-25T11:46:47;9.00;99.90
52103;DHT22;38101;53.126;6.878;2023-04-25T11:49:14;9.30;99.90
52103;DHT22;38101;53.126;6.878;2023-04-25T11:51:45;9.50;99.90
52103;DHT22;38101;53.126;6.878;2023-04-25T11:54:11;9.70;99.90
52103;DHT22;38101;53.126;6.878;2023-04-25T11:56:40;9.70;99.90
52103;DHT22;38101;53.126;6.878;2023-04-25T11:59:06;9.60;99.90
52103;DHT22;38101;53.126;6.878;2023-04-25T12:01:34;9.40;99.90
52103;DHT22;38101;53.126;6.878;2023-04-25T12:04:20;9.40;99.90
52103;DHT22;38101;53.126;6.878;2023-04-25T12:06:48;9.40;99.90
52103;DHT22;38101;53.126;6.878;2023-04-25T12:09:20;9.40;99.90
52103;DHT22;38101;53.126;6.878;2023-04-25T12:11:58;9.40;99.90
52103;DHT22;38101;53.126;6.878;2023-04-25T12:14:25;9.30;99.90
52103;DHT22;38101;53.126;6.878;2023-04-25T12:16:54;9.30;99.90
52103;DHT22;38101;53.126;6.878;2023-04-25T12:19:21;9.40;99.90
52103;DHT22;38101;53.126;6.878;2023-04-25T12:21:48;9.50;99.90
52103;DHT22;38101;53.126;6.878;2023-04-25T12:24:14;9.50;99.90
52103;DHT22;38101;53.126;6.878;2023-04-25T12:29:19;9.50;99.90
52103;DHT22;38101;53.126;6.878;2023-04-25T12:31:45;9.50;99.90
52103;DHT22;38101;53.126;6.878;2023-04-25T12:34:12;9.60;99.90
52103;DHT22;38101;53.126;6.878;2023-04-25T12:36:37;9.70;99.90
52103;DHT22;38101;53.126;6.878;2023-04-25T12:39:04;9.70;99.90
52103;DHT22;38101;53.126;6.878;2023-04-25T12:41:30;9.90;99.90
52103;DHT22;38101;53.126;6.878;2023-04-25T12:43:56;9.90;99.90
52103;DHT22;38101;53.126;6.878;2023-04-25T12:46:22;9.90;99.90
52103;DHT22;38101;53.126;6.878;2023-04-25T12:48:48;9.80;99.90
52103;DHT22;38101;53.126;6.878;2023-04-25T12:51:14;9.60;99.90
52103;DHT22;38101;53.126;6.878;2023-04-25T12:53:41;9.50;99.90
52103;DHT22;38101;53.126;6.878;2023-04-25T12:56:07;9.40;99.90
52103;DHT22;38101;53.126;6.878;2023-04-25T12:58:33;9.60;99.90
52103;DHT22;38101;53.126;6.878;2023-04-25T13:00:59;9.80;99.90
52103;DHT22;38101;53.126;6.878;2023-04-25T13:03:25;9.90;99.90
52103;DHT22;38101;53.126;6.878;2023-04-25T13:05:51;9.80;99.90
52103;DHT22;38101;53.126;6.878;2023-04-25T13:08:18;9.60;99.90
52103;DHT22;38101;53.126;6.878;2023-04-25T13:10:45;9.40;99.90
52103;DHT22;38101;53.126;6.878;2023-04-25T13:13:11;9.50;99.90
52103;DHT22;38101;53.126;6.878;2023-04-25T13:15:36;9.60;99.90
52103;DHT22;38101;53.126;6.878;2023-04-25T13:18:05;9.60;99.90
52103;DHT22;38101;53.126;6.878;2023-04-25T13:20:31;9.70;99.90
52103;DHT22;38101;53.126;6.878;2023-04-25T13:22:57;9.90;99.90
52103;DHT22;38101;53.126;6.878;2023-04-25T13:25:23;10.00;99.90
52103;DHT22;38101;53.126;6.878;2023-04-25T13:27:49;10.20;99.90
52103;DHT22;38101;53.126;6.878;2023-04-25T13:30:14;10.40;99.90
52103;DHT22;38101;53.126;6.878;2023-04-25T13:32:40;10.60;99.90
52103;DHT22;38101;53.126;6.878;2023-04-25T13:35:08;10.80;99.90
52103;DHT22;38101;53.126;6.878;2023-04-25T13:37:35;10.70;99.90
52103;DHT22;38101;53.126;6.878;2023-04-25T13:40:02;10.50;99.90
52103;DHT22;38101;53.126;6.878;2023-04-25T13:42:30;10.30;99.90
52103;DHT22;38101;53.126;6.878;2023-04-25T13:44:56;10.30;99.90
52103;DHT22;38101;53.126;6.878;2023-04-25T13:47:22;10.30;99.90
52103;DHT22;38101;53.126;6.878;2023-04-25T13:49:49;10.30;99.90
52103;DHT22;38101;53.126;6.878;2023-04-25T13:52:15;10.20;99.90
52103;DHT22;38101;53.126;6.878;2023-04-25T13:54:41;10.20;99.90
52103;DHT22;38101;53.126;6.878;2023-04-25T13:57:06;10.30;99.90
52103;DHT22;38101;53.126;6.878;2023-04-25T13:59:32;10.20;99.90
52103;DHT22;38101;53.126;6.878;2023-04-25T14:01:58;10.10;99.90
52103;DHT22;38101;53.126;6.878;2023-04-25T14:04:24;10.00;99.90
52103;DHT22;38101;53.126;6.878;2023-04-25T14:06:50;9.80;99.90
52103;DHT22;38101;53.126;6.878;2023-04-25T14:09:17;9.90;99.90
52103;DHT22;38101;53.126;6.878;2023-04-25T14:11:43;10.10;99.90
52103;DHT22;38101;53.126;6.878;2023-04-25T14:14:08;10.30;99.90
52103;DHT22;38101;53.126;6.878;2023-04-25T14:16:35;10.50;99.90
52103;DHT22;38101;53.126;6.878;2023-04-25T14:19:01;10.60;99.90
52103;DHT22;38101;53.126;6.878;2023-04-25T14:21:27;10.60;99.90
52103;DHT22;38101;53.126;6.878;2023-04-25T14:23:54;10.70;99.90
52103;DHT22;38101;53.126;6.878;2023-04-25T14:26:19;10.80;99.90
52103;DHT22;38101;53.126;6.878;2023-04-25T14:28:45;10.70;99.90
52103;DHT22;38101;53.126;6.878;2023-04-25T14:31:11;10.70;99.90
52103;DHT22;38101;53.126;6.878;2023-04-25T14:33:37;10.70;99.90
52103;DHT22;38101;53.126;6.878;2023-04-25T14:36:05;10.70;99.90
52103;DHT22;38101;53.126;6.878;2023-04-25T14:38:31;10.80;99.90
52103;DHT22;38101;53.126;6.878;2023-04-25T14:40:56;10.80;99.90
52103;DHT22;38101;53.126;6.878;2023-04-25T14:43:22;10.80;99.90
52103;DHT22;38101;53.126;6.878;2023-04-25T14:45:48;10.70;99.90
52103;DHT22;38101;53.126;6.878;2023-04-25T14:48:13;10.60;99.90
52103;DHT22;38101;53.126;6.878;2023-04-25T14:50:40;10.40;99.90
52103;DHT22;38101;53.126;6.878;2023-04-25T14:53:06;10.30;99.90
52103;DHT22;38101;53.126;6.878;2023-04-25T14:55:32;10.30;99.90
52103;DHT22;38101;53.126;6.878;2023-04-25T14:57:57;10.20;99.90
52103;DHT22;38101;53.126;6.878;2023-04-25T15:00:23;10.30;99.90
52103;DHT22;38101;53.126;6.878;2023-04-25T15:02:51;10.40;99.90
52103;DHT22;38101;53.126;6.878;2023-04-25T15:05:17;10.30;99.90
52103;DHT22;38101;53.126;6.878;2023-04-25T15:07:43;10.20;99.90
52103;DHT22;38101;53.126;6.878;2023-04-25T15:10:10;10.20;99.90
52103;DHT22;38101;53.126;6.878;2023-04-25T15:12:42;10.20;99.90
52103;DHT22;38101;53.126;6.878;2023-04-25T15:15:08;10.30;99.90
52103;DHT22;38101;53.126;6.878;2023-04-25T15:17:38;10.20;99.90
52103;DHT22;38101;53.126;6.878;2023-04-25T15:20:05;10.00;99.90
52103;DHT22;38101;53.126;6.878;2023-04-25T15:22:32;9.90;99.90
52103;DHT22;38101;53.126;6.878;2023-04-25T15:24:57;9.70;99.90
52103;DHT22;38101;53.126;6.878;2023-04-25T15:27:23;9.70;99.90
52103;DHT22;38101;53.126;6.878;2023-04-25T15:29:49;9.70;99.90
52103;DHT22;38101;53.126;6.878;2023-04-25T15:32:15;9.90;99.90
52103;DHT22;38101;53.126;6.878;2023-04-25T15:34:41;10.10;99.90
52103;DHT22;38101;53.126;6.878;2023-04-25T15:37:06;10.20;99.90
52103;DHT22;38101;53.126;6.878;2023-04-25T15:39:32;10.30;99.90
52103;DHT22;38101;53.126;6.878;2023-04-25T15:41:58;10.40;99.90
52103;DHT22;38101;53.126;6.878;2023-04-25T15:44:24;10.10;99.90
52103;DHT22;38101;53.126;6.878;2023-04-25T15:46:50;10.20;99.90
52103;DHT22;38101;53.126;6.878;2023-04-25T15:49:15;10.00;99.90
52103;DHT22;38101;53.126;6.878;2023-04-25T15:51:41;9.90;99.90
52103;DHT22;38101;53.126;6.878;2023-04-25T15:54:07;9.80;99.90
52103;DHT22;38101;53.126;6.878;2023-04-25T15:56:33;9.80;99.90